createdAt,value
2019-01-12T00:01:19.211Z,22.00
2019-01-12T00:03:49.456Z,29.27
2019-01-12T00:06:19.675Z,8.10
2019-01-12T00:08:49.835Z,11.30
2019-01-12T00:11:20.010Z,4.57
2019-01-12T00:13:50.257Z,4.13
2019-01-12T00:16:21.489Z,5.10
2019-01-12T00:21:28.491Z,5.80
2019-01-12T00:23:58.738Z,2.93
2019-01-12T00:26:28.979Z,3.90
2019-01-12T00:28:59.125Z,4.80
2019-01-12T00:31:29.263Z,3.97
2019-01-12T00:33:59.553Z,6.13
2019-01-12T00:36:29.715Z,10.77
2019-01-12T00:38:59.994Z,6.30
2019-01-12T00:41:30.351Z,5.13
2019-01-12T00:44:00.525Z,4.80
2019-01-12T00:46:30.693Z,4.47
2019-01-12T00:49:00.952Z,5.20
2019-01-12T00:51:31.206Z,5.00
2019-01-12T00:54:01.349Z,4.20
2019-01-12T00:56:31.513Z,5.07
2019-01-12T00:59:01.752Z,5.40
2019-01-12T01:01:31.996Z,5.17
2019-01-12T01:04:02.136Z,5.50
2019-01-12T01:06:32.291Z,5.10
2019-01-12T01:09:02.557Z,6.67
2019-01-12T01:11:32.824Z,6.23
2019-01-12T01:14:02.989Z,6.67
2019-01-12T01:16:33.237Z,4.00
2019-01-12T01:19:03.382Z,3.50
2019-01-12T01:21:33.805Z,4.17
2019-01-12T01:24:04.155Z,2.77
2019-01-12T01:26:34.391Z,3.07
2019-01-12T01:29:04.720Z,4.20
2019-01-12T01:31:34.888Z,2.20
2019-01-12T01:34:05.134Z,4.50
2019-01-12T01:36:35.394Z,4.90
2019-01-12T01:39:25.699Z,3.93
2019-01-12T01:41:55.935Z,3.07
2019-01-12T01:44:26.259Z,4.07
2019-01-12T01:46:56.496Z,3.73
2019-01-12T01:49:26.638Z,3.80
2019-01-12T01:51:56.792Z,3.67
2019-01-12T01:54:27.049Z,2.57
2019-01-12T01:56:57.206Z,3.27
2019-01-12T01:59:27.575Z,2.90
2019-01-12T02:01:57.800Z,5.07
2019-01-12T02:07:25.902Z,9.23
2019-01-12T02:09:56.348Z,5.03
2019-01-12T02:12:46.859Z,4.60
2019-01-12T02:15:17.084Z,4.17
2019-01-12T02:17:47.353Z,3.63
2019-01-12T02:20:17.644Z,3.37
2019-01-12T02:22:47.921Z,4.63
2019-01-12T02:25:18.061Z,4.93
2019-01-12T02:27:48.205Z,4.10
2019-01-12T02:30:24.469Z,3.33
2019-01-12T02:32:55.583Z,3.33
2019-01-12T02:35:25.722Z,3.20
2019-01-12T02:37:55.892Z,3.37
2019-01-12T02:40:26.139Z,3.43
2019-01-12T02:42:56.371Z,3.60
2019-01-12T02:45:26.521Z,3.27
2019-01-12T02:47:56.665Z,3.10
2019-01-12T02:50:26.911Z,3.53
2019-01-12T02:52:57.148Z,4.63
2019-01-12T02:55:27.280Z,4.13
2019-01-12T02:57:57.458Z,2.40
2019-01-12T03:00:27.708Z,3.10
2019-01-12T03:02:57.970Z,3.30
2019-01-12T03:05:28.120Z,3.80
2019-01-12T03:07:58.261Z,3.47
2019-01-12T03:10:28.502Z,4.00
2019-01-12T03:12:58.746Z,3.00
2019-01-12T03:18:04.609Z,3.43
2019-01-12T03:20:34.968Z,3.90
2019-01-12T03:23:05.095Z,4.40
2019-01-12T03:25:35.276Z,3.73
2019-01-12T03:28:05.510Z,3.67
2019-01-12T03:30:36.533Z,4.30
2019-01-12T03:33:07.648Z,5.00
2019-01-12T03:35:37.861Z,3.77
2019-01-12T03:38:08.199Z,2.20
2019-01-12T03:40:38.387Z,3.90
2019-01-12T03:43:08.562Z,2.77
2019-01-12T03:45:38.767Z,3.10
2019-01-12T03:48:09.119Z,3.00
2019-01-12T03:50:39.323Z,3.17
2019-01-12T03:53:09.547Z,2.70
2019-01-12T03:55:39.752Z,3.33
2019-01-12T03:58:09.961Z,3.43
2019-01-12T04:00:40.160Z,2.67
2019-01-12T04:03:10.414Z,2.93
2019-01-12T04:05:40.622Z,3.13
2019-01-12T04:08:10.792Z,3.83
2019-01-12T04:10:41.007Z,4.50
2019-01-12T04:13:11.267Z,3.87
2019-01-12T04:15:41.482Z,2.60
2019-01-12T04:18:11.626Z,5.77
2019-01-12T04:20:41.852Z,7.30
2019-01-12T04:23:12.099Z,6.83
2019-01-12T04:25:42.297Z,4.50
2019-01-12T04:28:12.443Z,4.60
2019-01-12T04:30:42.644Z,3.37
2019-01-12T04:35:48.975Z,5.13
2019-01-12T04:38:19.309Z,3.60
2019-01-12T04:40:49.563Z,4.67
2019-01-12T04:43:19.721Z,4.33
2019-01-12T04:45:49.974Z,3.73
2019-01-12T04:48:20.240Z,4.97
2019-01-12T04:50:50.782Z,6.87
2019-01-12T04:53:20.953Z,9.97
2019-01-12T04:55:51.126Z,8.43
2019-01-12T04:58:21.397Z,6.53
2019-01-12T05:00:51.635Z,16.23
2019-01-12T05:03:21.794Z,17.63
2019-01-12T05:05:52.039Z,19.10
2019-01-12T05:08:22.310Z,15.37
2019-01-12T05:10:52.588Z,11.10
2019-01-12T05:13:22.745Z,10.90
2019-01-12T05:15:52.914Z,17.43
2019-01-12T05:18:23.175Z,8.70
2019-01-12T05:20:53.406Z,8.90
2019-01-12T05:23:23.552Z,7.53
2019-01-12T05:25:53.725Z,10.97
2019-01-12T05:28:23.970Z,13.73
2019-01-12T05:30:54.207Z,10.57
2019-01-12T05:33:24.356Z,8.37
2019-01-12T05:35:54.534Z,8.73
2019-01-12T05:38:24.789Z,7.23
2019-01-12T05:40:55.040Z,8.00
2019-01-12T05:43:25.204Z,13.23
2019-01-12T05:45:55.366Z,10.07
2019-01-12T05:48:25.621Z,9.70
2019-01-12T05:50:55.874Z,6.33
2019-01-12T05:53:26.013Z,13.23
2019-01-12T05:55:58.087Z,12.33
2019-01-12T06:01:04.277Z,8.13
2019-01-12T06:03:34.637Z,10.90
2019-01-12T06:06:24.945Z,4.60
2019-01-12T06:08:55.193Z,7.97
2019-01-12T06:11:25.347Z,6.57
2019-01-12T06:13:55.671Z,8.53
2019-01-12T06:16:25.912Z,4.73
2019-01-12T06:18:56.058Z,5.83
2019-01-12T06:21:26.204Z,6.60
2019-01-12T06:23:56.443Z,5.47
2019-01-12T06:26:26.700Z,3.70
2019-01-12T06:28:56.851Z,5.20
2019-01-12T06:31:27.023Z,5.20
2019-01-12T06:33:57.306Z,6.27
2019-01-12T06:36:27.580Z,7.70
2019-01-12T06:38:57.736Z,8.97
2019-01-12T06:41:27.995Z,8.00
2019-01-12T06:43:58.155Z,6.20
2019-01-12T06:46:28.314Z,9.53
2019-01-12T06:48:58.570Z,5.87
2019-01-12T06:51:28.815Z,3.73
2019-01-12T06:53:58.974Z,5.40
2019-01-12T06:56:29.131Z,5.30
2019-01-12T06:58:59.444Z,6.03
2019-01-12T07:01:29.713Z,4.17
2019-01-12T07:03:59.870Z,5.77
2019-01-12T07:06:29.990Z,5.13
2019-01-12T07:11:36.050Z,6.00
2019-01-12T07:14:06.276Z,5.93
2019-01-12T07:16:36.493Z,4.97
2019-01-12T07:19:06.774Z,8.33
2019-01-12T07:21:36.989Z,10.80
2019-01-12T07:24:07.322Z,9.70
2019-01-12T07:26:37.619Z,5.80
2019-01-12T07:29:07.874Z,8.50
2019-01-12T07:31:38.067Z,5.20
2019-01-12T07:34:08.395Z,6.93
2019-01-12T07:36:38.707Z,6.07
2019-01-12T07:39:09.837Z,6.07
2019-01-12T07:41:40.009Z,8.07
2019-01-12T07:44:10.281Z,8.57
2019-01-12T07:46:40.560Z,8.20
2019-01-12T07:49:10.796Z,9.20
2019-01-12T07:51:41.002Z,8.30
2019-01-12T07:54:11.431Z,7.27
2019-01-12T07:56:41.670Z,8.60
2019-01-12T07:59:11.824Z,6.50
2019-01-12T08:01:42.041Z,6.07
2019-01-12T08:04:12.291Z,9.70
2019-01-12T08:06:42.516Z,6.30
2019-01-12T08:09:12.668Z,4.33
2019-01-12T08:11:42.962Z,5.27
2019-01-12T08:14:13.210Z,5.37
2019-01-12T08:16:43.455Z,5.83
2019-01-12T08:19:13.620Z,6.47
2019-01-12T08:21:43.806Z,22.83
2019-01-12T08:24:14.075Z,16.63
2019-01-12T08:26:44.394Z,21.07
2019-01-12T08:29:14.570Z,19.43
2019-01-12T08:31:44.731Z,24.37
2019-01-12T08:34:14.980Z,21.53
2019-01-12T08:36:45.247Z,21.37
2019-01-12T08:39:15.458Z,21.13
2019-01-12T08:41:45.735Z,37.60
2019-01-12T08:44:15.919Z,23.63
2019-01-12T08:46:46.144Z,18.57
2019-01-12T08:49:23.350Z,24.10
2019-01-12T08:51:53.857Z,24.17
2019-01-12T08:54:24.128Z,24.63
2019-01-12T08:56:54.394Z,19.73
2019-01-12T08:59:26.172Z,26.50
2019-01-12T09:01:56.468Z,25.90
2019-01-12T09:04:26.642Z,32.90
2019-01-12T09:06:56.972Z,29.30
2019-01-12T09:09:27.224Z,23.73
2019-01-12T09:11:57.484Z,23.47
2019-01-12T09:14:27.625Z,28.17
2019-01-12T09:16:57.786Z,27.40
2019-01-12T09:19:28.046Z,32.70
2019-01-12T09:21:58.232Z,29.80
2019-01-12T09:27:28.331Z,23.53
2019-01-12T09:44:51.386Z,19.13
2019-01-12T09:53:33.192Z,31.27
2019-01-12T09:59:06.550Z,32.97
2019-01-12T10:07:51.975Z,28.30
2019-01-12T10:13:56.191Z,23.07
2019-01-12T10:19:32.161Z,16.23
2019-01-12T10:28:13.660Z,33.67
2019-01-12T10:30:44.852Z,21.67
2019-01-12T10:44:55.884Z,18.20
2019-01-12T10:50:41.793Z,20.03
2019-01-12T10:55:58.368Z,22.00
2019-01-12T11:01:47.019Z,20.40
2019-01-12T11:04:39.993Z,26.00
2019-01-12T11:07:27.111Z,27.40
2019-01-12T11:16:11.309Z,21.27
2019-01-12T11:27:57.993Z,26.63
2019-01-12T11:33:47.140Z,29.40
2019-01-12T11:39:42.114Z,26.93
2019-01-12T12:07:09.666Z,27.40
2019-01-12T12:09:58.897Z,24.63
2019-01-12T12:13:07.899Z,39.30
2019-01-12T12:18:47.768Z,46.43
2019-01-12T12:24:47.126Z,19.60
2019-01-12T12:33:36.749Z,27.23
2019-01-12T12:59:24.372Z,35.07
2019-01-12T13:01:54.648Z,37.90
2019-01-12T13:04:25.171Z,31.23
2019-01-12T13:07:15.481Z,31.90
2019-01-12T13:13:01.578Z,39.07
2019-01-12T13:15:31.948Z,35.43
2019-01-12T13:18:02.205Z,39.33
2019-01-12T13:20:32.391Z,45.23
2019-01-12T13:23:02.717Z,35.83
2019-01-12T13:25:32.883Z,30.37
2019-01-12T13:28:03.086Z,31.50
2019-01-12T13:39:01.126Z,28.97
2019-01-12T13:41:31.378Z,32.20
2019-01-12T13:44:01.652Z,32.07
2019-01-12T13:46:31.974Z,31.70
2019-01-12T13:49:02.124Z,32.00
2019-01-12T13:51:32.272Z,11.43
2019-01-12T13:54:02.674Z,7.80
2019-01-12T13:59:53.836Z,14.07
2019-01-12T14:02:49.007Z,9.13
2019-01-12T14:08:14.872Z,5.60
2019-01-12T14:10:45.165Z,7.73
2019-01-12T14:13:15.374Z,7.77
2019-01-12T14:15:45.633Z,9.67
2019-01-12T14:18:22.420Z,16.70
2019-01-12T14:23:23.420Z,14.70
2019-01-12T14:25:53.700Z,13.80
2019-01-12T14:28:23.954Z,14.07
2019-01-12T14:30:54.119Z,11.07
2019-01-12T14:33:24.294Z,9.10
2019-01-12T14:35:54.548Z,8.20
2019-01-12T14:38:24.810Z,8.70
2019-01-12T14:40:55.010Z,9.10
2019-01-12T14:43:25.217Z,10.13
2019-01-12T14:45:55.526Z,10.60
2019-01-12T14:48:25.824Z,11.80
2019-01-12T14:50:56.040Z,12.57
2019-01-12T14:53:26.327Z,17.20
2019-01-12T14:55:56.503Z,19.80
2019-01-12T14:58:26.668Z,14.33
2019-01-12T15:00:56.925Z,12.80
2019-01-12T15:03:27.158Z,12.93
2019-01-12T15:05:57.328Z,19.93
2019-01-12T15:08:27.496Z,13.63
2019-01-12T15:10:57.765Z,13.63
2019-01-12T15:13:28.012Z,18.33
2019-01-12T15:15:58.473Z,30.07
2019-01-12T15:18:28.625Z,15.87
2019-01-12T15:20:58.904Z,15.50
2019-01-12T15:23:29.288Z,17.27
2019-01-12T15:28:35.005Z,16.03
2019-01-12T15:31:05.301Z,15.07
2019-01-12T15:33:35.587Z,11.07
2019-01-12T15:36:05.850Z,10.90
2019-01-12T15:38:36.039Z,13.97
2019-01-12T15:41:06.334Z,10.40
2019-01-12T15:43:36.627Z,10.67
2019-01-12T15:46:06.810Z,11.07
2019-01-12T15:48:37.005Z,12.83
2019-01-12T15:51:07.266Z,9.67
2019-01-12T15:53:37.600Z,9.23
2019-01-12T15:56:07.788Z,21.87
2019-01-12T15:58:38.082Z,18.20
2019-01-12T16:01:08.414Z,15.40
2019-01-12T16:03:38.695Z,10.50
2019-01-12T16:06:08.880Z,8.13
2019-01-12T16:08:39.087Z,7.87
2019-01-12T16:11:09.399Z,10.43
2019-01-12T16:13:39.607Z,5.23
2019-01-12T16:16:09.924Z,5.97
2019-01-12T16:18:42.953Z,9.90
2019-01-12T16:21:13.168Z,10.57
2019-01-12T16:23:43.370Z,7.43
2019-01-12T16:26:13.744Z,6.90
2019-01-12T16:28:46.730Z,8.90
2019-01-12T16:31:17.073Z,9.10
2019-01-12T16:33:47.387Z,8.03
2019-01-12T16:36:17.667Z,13.00
2019-01-12T16:38:47.956Z,13.87
2019-01-12T16:41:18.707Z,12.27
2019-01-12T16:43:50.152Z,10.93
2019-01-12T16:46:20.435Z,11.30
2019-01-12T16:48:50.706Z,9.80
2019-01-12T16:51:20.885Z,11.97
2019-01-12T16:53:51.161Z,11.17
2019-01-12T16:56:21.350Z,9.17
2019-01-12T16:58:51.509Z,11.10
2019-01-12T17:01:21.771Z,12.63
2019-01-12T17:03:52.098Z,12.07
2019-01-12T17:06:22.243Z,8.07
2019-01-12T17:08:52.422Z,7.27
2019-01-12T17:11:22.713Z,6.40
2019-01-12T17:13:52.992Z,7.83
2019-01-12T17:16:23.163Z,9.23
2019-01-12T17:18:53.335Z,7.73
2019-01-12T17:21:23.598Z,7.80
2019-01-12T17:23:53.978Z,7.00
2019-01-12T17:26:24.149Z,5.87
2019-01-12T17:28:54.326Z,5.57
2019-01-12T17:31:24.970Z,6.43
2019-01-12T17:33:55.132Z,8.30
2019-01-12T17:36:25.390Z,7.87
2019-01-12T17:38:55.636Z,8.83
2019-01-12T17:41:25.811Z,7.53
2019-01-12T17:46:32.367Z,5.67
2019-01-12T17:49:02.765Z,6.27
2019-01-12T17:51:32.921Z,9.10
2019-01-12T17:54:03.107Z,8.70
2019-01-12T17:56:33.391Z,7.63
2019-01-12T17:59:03.655Z,11.70
2019-01-12T18:01:33.834Z,6.27
2019-01-12T18:04:03.896Z,7.00
2019-01-12T18:06:34.274Z,7.80
2019-01-12T18:12:03.980Z,9.47
2019-01-12T18:14:34.203Z,12.80
2019-01-12T18:17:04.426Z,13.30
2019-01-12T18:19:34.577Z,7.40
2019-01-12T18:22:04.874Z,13.93
2019-01-12T18:24:35.106Z,9.53
2019-01-12T18:27:05.298Z,8.10
2019-01-12T18:29:35.501Z,7.50
2019-01-12T18:32:05.736Z,4.70
2019-01-12T18:34:36.026Z,6.30
2019-01-12T18:37:06.689Z,5.13
2019-01-12T18:39:36.953Z,7.97
2019-01-12T18:42:07.179Z,6.00
2019-01-12T18:44:37.495Z,8.93
2019-01-12T18:47:07.771Z,8.27
2019-01-12T18:49:37.931Z,20.67
2019-01-12T18:52:08.188Z,9.73
2019-01-12T18:54:38.541Z,8.40
2019-01-12T18:57:08.754Z,8.00
2019-01-12T18:59:38.993Z,10.00
2019-01-12T19:02:09.175Z,11.87
2019-01-12T19:04:39.319Z,8.70
2019-01-12T19:07:09.505Z,6.10
2019-01-12T19:09:39.763Z,6.20
2019-01-12T19:14:46.068Z,5.30
2019-01-12T19:17:16.373Z,5.40
2019-01-12T19:19:46.686Z,7.97
2019-01-12T19:22:16.950Z,6.77
2019-01-12T19:24:47.151Z,6.23
2019-01-12T19:27:17.354Z,5.57
2019-01-12T19:29:47.616Z,7.10
2019-01-12T19:32:17.868Z,4.17
2019-01-12T19:34:48.041Z,6.00
2019-01-12T19:37:18.302Z,4.90
2019-01-12T19:39:48.492Z,5.20
2019-01-12T19:42:18.750Z,4.40
2019-01-12T19:44:49.007Z,5.83
2019-01-12T19:47:19.327Z,5.07
2019-01-12T19:49:49.500Z,7.27
2019-01-12T19:52:19.677Z,6.37
2019-01-12T19:54:49.937Z,6.87
2019-01-12T19:57:20.196Z,6.80
2019-01-12T19:59:50.372Z,4.93
2019-01-12T20:02:20.532Z,5.73
2019-01-12T20:04:50.819Z,5.40
2019-01-12T20:07:21.072Z,5.23
2019-01-12T20:09:51.232Z,5.03
2019-01-12T20:12:21.502Z,4.13
2019-01-12T20:14:52.016Z,7.87
2019-01-12T20:17:22.199Z,5.87
2019-01-12T20:19:52.458Z,7.43
2019-01-12T20:22:22.817Z,6.90
2019-01-12T20:24:52.998Z,5.37
2019-01-12T20:27:23.169Z,4.90
2019-01-12T20:29:53.435Z,3.83
2019-01-12T20:33:01.151Z,4.53
2019-01-12T20:38:54.504Z,4.43
2019-01-12T20:44:50.161Z,3.40
2019-01-12T20:47:57.985Z,3.67
2019-01-12T20:50:53.668Z,5.67
2019-01-12T20:53:46.322Z,3.57
2019-01-12T20:56:39.267Z,2.37
2019-01-12T20:59:47.095Z,3.97
2019-01-12T21:05:43.888Z,2.77
2019-01-12T21:08:36.925Z,2.50
2019-01-12T21:11:53.723Z,3.50
2019-01-12T21:14:46.856Z,4.53
2019-01-12T21:17:18.876Z,3.53
2019-01-12T21:19:49.188Z,4.00
2019-01-12T21:22:19.337Z,4.03
2019-01-12T21:24:49.498Z,3.80
2019-01-12T21:27:19.766Z,4.93
2019-01-12T21:29:50.016Z,3.70
2019-01-12T21:32:20.191Z,5.20
2019-01-12T21:34:50.394Z,4.27
2019-01-12T21:37:20.668Z,5.57
2019-01-12T21:39:50.922Z,7.67
2019-01-12T21:42:21.089Z,5.47
2019-01-12T21:44:51.294Z,4.20
2019-01-12T21:47:21.675Z,5.80
2019-01-12T21:49:51.921Z,3.63
2019-01-12T21:52:22.100Z,3.80
2019-01-12T21:54:52.504Z,3.83
2019-01-12T21:57:22.671Z,1.90
2019-01-12T21:59:52.842Z,3.80
2019-01-12T22:02:23.089Z,4.13
2019-01-12T22:04:53.323Z,3.60
2019-01-12T22:07:23.521Z,2.80
2019-01-12T22:09:53.698Z,4.10
2019-01-12T22:12:23.988Z,3.20
2019-01-12T22:14:54.233Z,3.80
2019-01-12T22:17:24.585Z,4.00
2019-01-12T22:19:54.792Z,4.40
2019-01-12T22:22:25.057Z,4.40
2019-01-12T22:24:55.430Z,3.47
2019-01-12T22:27:25.641Z,3.20
2019-01-12T22:29:55.806Z,5.73
2019-01-12T22:32:26.061Z,5.43
2019-01-12T22:34:56.238Z,4.60
2019-01-12T22:37:27.229Z,5.53
2019-01-12T22:39:58.794Z,3.10
2019-01-12T22:42:28.945Z,5.10
2019-01-12T22:44:59.141Z,7.17
2019-01-12T22:47:29.444Z,4.20
2019-01-12T22:49:59.715Z,4.77
2019-01-12T22:52:29.902Z,5.87
2019-01-12T22:55:00.226Z,3.90
2019-01-12T22:57:30.555Z,8.17
2019-01-12T23:00:00.783Z,6.50
2019-01-12T23:02:31.195Z,7.50
2019-01-12T23:05:01.422Z,6.60
2019-01-12T23:07:31.717Z,5.20
2019-01-12T23:10:01.972Z,3.77
2019-01-12T23:12:32.192Z,5.43
2019-01-12T23:15:02.539Z,4.20
2019-01-12T23:17:32.684Z,5.60
2019-01-12T23:20:02.857Z,6.20
2019-01-12T23:22:33.116Z,7.73
2019-01-12T23:25:03.354Z,5.30
2019-01-12T23:27:33.534Z,3.17
2019-01-12T23:30:04.713Z,5.77
2019-01-12T23:38:07.582Z,5.73
2019-01-12T23:40:37.727Z,4.17
2019-01-12T23:43:08.099Z,3.90
2019-01-12T23:45:38.351Z,3.70
2019-01-12T23:48:08.496Z,4.40
2019-01-12T23:50:38.669Z,3.60
2019-01-12T23:53:08.931Z,3.63
2019-01-12T23:55:39.098Z,4.30
2019-01-12T23:58:09.370Z,5.07
